Blanche, Louisiana
Current Conditions -  °F | °C
As of 10:35 PM on Wednesday 26 Nov 2014 (Local Time) from KACP Reporting Station
Clear Clear  
Wind Chill: 41°   Ceiling: Unl
Heat Index: 41°   Visibility: 10mi
Dew Point: 39°   Wind: 0mph
Humidity: 94%   Direction: NA
Pressure: 30.29"   Gusts: NA
Location:  30.9922°N, 92.6266°W
Report Text: KACP 270435Z AUTO 00000KT 10SM CLR 05/04 A3029 RMK AO2 T00500041
Loading
Personal Weather Stations






























Interactive Weather Map New forecast layout! Learn more

10-Day Weather Forecast

Advertisements
Track Severe Weather on mobile